PWSweather.com
Personal Weather Stations
Station Observations
METEOC500
Santo Antonio, FunchalPT 2020

Santo AntonioFunchalPT 2020

Lat: 32.678227, Lon: -16.945054

Elevation: 1669.94751

Station Type: WH Series

High Low Average
Temperature 73.6°F23.1°C 57.4°F14.1°C 65.7°F18.7°C
Dew Point 63.5°F17.5°C 47.7°F8.7°C 56.7°F13.7°C
Winds 8.5 mph 13.7 kmh Calm Calm 4.0 mph W6.4 kmh W
Wind Gusts 17.4 mph28.0 kmh -- 9.0 mph14.5 kmh
Humidity 86% 50% 73%
Pressure 30.26 in1024.7 mb 30.18 in1022.0 mb -
Precipitation 0.00 in0.0 mm - -
Hour Temp Dew Point Humidity Winds Wind Gusts Pressure Precip Precip Rate Daily Precip Total
12:09 AM 60.8°F16.0°C 55.9°F13.3°C 84% 4.0 mph NW6.4 kmh NW 10.1 mph16.3 kmh 30.23 in1023.7 mb 0.00 in0.0 mm 0.00 in0.0 mm 0.00 in0.0 mm
12:24 AM 60.4°F15.8°C 55.2°F12.9°C 83% 6.0 mph N9.7 kmh N 10.1 mph16.3 kmh 30.23 in1023.7 mb 0.00 in0.0 mm 0.00 in0.0 mm 0.00 in0.0 mm
12:39 AM 60.3°F15.7°C 55.0°F12.8°C 83% 6.5 mph NNW10.5 kmh NNW 10.1 mph16.3 kmh 30.23 in1023.7 mb 0.00 in0.0 mm 0.00 in0.0 mm 0.00 in0.0 mm
12:54 AM 60.3°F15.7°C 55.4°F13.0°C 84% 4.0 mph N6.4 kmh N 10.1 mph16.3 kmh 30.22 in1023.4 mb 0.00 in0.0 mm 0.00 in0.0 mm 0.00 in0.0 mm
01:10 AM 60.1°F15.6°C 55.2°F12.9°C 84% 7.2 mph NNW11.6 kmh NNW 7.6 mph12.2 kmh 30.23 in1023.7 mb 0.00 in0.0 mm 0.00 in0.0 mm 0.00 in0.0 mm
01:25 AM 59.9°F15.5°C 55.0°F12.8°C 84% 6.9 mph N11.1 kmh N 10.1 mph16.3 kmh 30.22 in1023.4 mb 0.00 in0.0 mm 0.00 in0.0 mm 0.00 in0.0 mm
01:40 AM 60.1°F15.6°C 54.9°F12.7°C 83% 7.6 mph NNW12.2 kmh NNW 12.5 mph20.1 kmh 30.22 in1023.4 mb 0.00 in0.0 mm 0.00 in0.0 mm 0.00 in0.0 mm
01:55 AM 60.3°F15.7°C 55.0°F12.8°C 83% 8.1 mph NNW13.0 kmh NNW 10.1 mph16.3 kmh 30.21 in1023.0 mb 0.00 in0.0 mm 0.00 in0.0 mm 0.00 in0.0 mm
02:10 AM 60.3°F15.7°C 55.0°F12.8°C 83% 7.6 mph NNW12.2 kmh NNW 10.1 mph16.3 kmh 30.21 in1023.0 mb 0.00 in0.0 mm 0.00 in0.0 mm 0.00 in0.0 mm
02:26 AM 60.3°F15.7°C 55.4°F13.0°C 84% 8.1 mph NNW13.0 kmh NNW 10.1 mph16.3 kmh 30.21 in1023.0 mb 0.00 in0.0 mm 0.00 in0.0 mm 0.00 in0.0 mm
02:41 AM 60.3°F15.7°C 55.4°F13.0°C 84% 5.4 mph NW8.7 kmh NW 10.1 mph16.3 kmh 30.20 in1022.7 mb 0.00 in0.0 mm 0.00 in0.0 mm 0.00 in0.0 mm
02:56 AM 60.1°F15.6°C 55.2°F12.9°C 84% 6.5 mph NNW10.5 kmh NNW 12.5 mph20.1 kmh 30.19 in1022.4 mb 0.00 in0.0 mm 0.00 in0.0 mm 0.00 in0.0 mm
03:11 AM 59.9°F15.5°C 55.4°F13.0°C 85% 6.9 mph N11.1 kmh N 10.1 mph16.3 kmh 30.19 in1022.4 mb 0.00 in0.0 mm 0.00 in0.0 mm 0.00 in0.0 mm
03:26 AM 59.9°F15.5°C 55.4°F13.0°C 85% 7.8 mph NW12.6 kmh NW 12.5 mph20.1 kmh 30.19 in1022.4 mb 0.00 in0.0 mm 0.00 in0.0 mm 0.00 in0.0 mm
03:41 AM 59.7°F15.4°C 55.2°F12.9°C 85% 4.9 mph N7.9 kmh N 12.5 mph20.1 kmh 30.18 in1022.0 mb 0.00 in0.0 mm 0.00 in0.0 mm 0.00 in0.0 mm
03:56 AM 59.4°F15.2°C 54.9°F12.7°C 85% 7.6 mph N12.2 kmh N 10.1 mph16.3 kmh 30.18 in1022.0 mb 0.00 in0.0 mm 0.00 in0.0 mm 0.00 in0.0 mm
04:11 AM 59.2°F15.1°C 54.7°F12.6°C 85% 4.7 mph NW7.6 kmh NW 10.1 mph16.3 kmh 30.18 in1022.0 mb 0.00 in0.0 mm 0.00 in0.0 mm 0.00 in0.0 mm
04:27 AM 59.0°F15.0°C 54.9°F12.7°C 86% 4.7 mph NNW7.6 kmh NNW 12.5 mph20.1 kmh 30.19 in1022.4 mb 0.00 in0.0 mm 0.00 in0.0 mm 0.00 in0.0 mm
04:42 AM 59.0°F15.0°C 54.5°F12.5°C 85% 4.9 mph N7.9 kmh N 10.1 mph16.3 kmh 30.18 in1022.0 mb 0.00 in0.0 mm 0.00 in0.0 mm 0.00 in0.0 mm
04:57 AM 58.8°F14.9°C 54.0°F12.2°C 84% 4.7 mph N7.6 kmh N 12.5 mph20.1 kmh 30.19 in1022.4 mb 0.00 in0.0 mm 0.00 in0.0 mm 0.00 in0.0 mm
05:12 AM 58.5°F14.7°C 53.1°F11.7°C 82% 6.3 mph NNW10.1 kmh NNW 10.1 mph16.3 kmh 30.19 in1022.4 mb 0.00 in0.0 mm 0.00 in0.0 mm 0.00 in0.0 mm
05:27 AM 58.6°F14.8°C 53.2°F11.8°C 82% 3.4 mph NNW5.5 kmh NNW 10.1 mph16.3 kmh 30.19 in1022.4 mb 0.00 in0.0 mm 0.00 in0.0 mm 0.00 in0.0 mm
05:43 AM 58.5°F14.7°C 53.2°F11.8°C 83% 2.9 mph NW4.7 kmh NW 10.1 mph16.3 kmh 30.19 in1022.4 mb 0.00 in0.0 mm 0.00 in0.0 mm 0.00 in0.0 mm
05:58 AM 57.6°F14.2°C 52.2°F11.2°C 82% 5.6 mph NNW9.0 kmh NNW 10.1 mph16.3 kmh 30.20 in1022.7 mb 0.00 in0.0 mm 0.00 in0.0 mm 0.00 in0.0 mm
06:13 AM 57.4°F14.1°C 52.3°F11.3°C 83% 5.4 mph NW8.7 kmh NW 10.1 mph16.3 kmh 30.20 in1022.7 mb 0.00 in0.0 mm 0.00 in0.0 mm 0.00 in0.0 mm
06:28 AM 57.6°F14.2°C 52.7°F11.5°C 84% 8.5 mph NNW13.7 kmh NNW 10.1 mph16.3 kmh 30.20 in1022.7 mb 0.00 in0.0 mm 0.00 in0.0 mm 0.00 in0.0 mm
06:43 AM 58.1°F14.5°C 53.2°F11.8°C 84% 4.7 mph NNW7.6 kmh NNW 10.1 mph16.3 kmh 30.20 in1022.7 mb 0.00 in0.0 mm 0.00 in0.0 mm 0.00 in0.0 mm
06:59 AM 58.5°F14.7°C 53.2°F11.8°C 83% 6.9 mph N11.1 kmh N 10.1 mph16.3 kmh 30.21 in1023.0 mb 0.00 in0.0 mm 0.00 in0.0 mm 0.00 in0.0 mm
07:14 AM 58.1°F14.5°C 50.9°F10.5°C 77% 5.4 mph N8.7 kmh N 10.1 mph16.3 kmh 30.21 in1023.0 mb 0.00 in0.0 mm 0.00 in0.0 mm 0.00 in0.0 mm
07:29 AM 58.8°F14.9°C 50.9°F10.5°C 75% 4.0 mph NNW6.4 kmh NNW 10.1 mph16.3 kmh 30.21 in1023.0 mb 0.00 in0.0 mm 0.00 in0.0 mm 0.00 in0.0 mm
07:44 AM 59.7°F15.4°C 51.4°F10.8°C 74% 6.3 mph NNW10.1 kmh NNW 10.1 mph16.3 kmh 30.20 in1022.7 mb 0.00 in0.0 mm 0.00 in0.0 mm 0.00 in0.0 mm
07:59 AM 60.3°F15.7°C 50.4°F10.2°C 70% 4.7 mph N7.6 kmh N 12.5 mph20.1 kmh 30.21 in1023.0 mb 0.00 in0.0 mm 0.00 in0.0 mm 0.00 in0.0 mm
08:15 AM 60.8°F16.0°C 50.9°F10.5°C 70% 4.9 mph N7.9 kmh N 10.1 mph16.3 kmh 30.21 in1023.0 mb 0.00 in0.0 mm 0.00 in0.0 mm 0.00 in0.0 mm
08:30 AM 61.3°F16.3°C 51.8°F11.0°C 71% 4.0 mph NNE6.4 kmh NNE 7.6 mph12.2 kmh 30.21 in1023.0 mb 0.00 in0.0 mm 0.00 in0.0 mm 0.00 in0.0 mm
08:46 AM 62.1°F16.7°C 53.2°F11.8°C 73% 3.4 mph N5.5 kmh N 7.6 mph12.2 kmh 30.21 in1023.0 mb 0.00 in0.0 mm 0.00 in0.0 mm 0.00 in0.0 mm
09:01 AM 63.0°F17.2°C 55.2°F12.9°C 76% 5.4 mph N8.7 kmh N 7.6 mph12.2 kmh 30.22 in1023.4 mb 0.00 in0.0 mm 0.00 in0.0 mm 0.00 in0.0 mm
09:16 AM 64.6°F18.1°C 55.8°F13.2°C 73% 2.2 mph N3.5 kmh N 4.9 mph7.9 kmh 30.22 in1023.4 mb 0.00 in0.0 mm 0.00 in0.0 mm 0.00 in0.0 mm
09:31 AM 67.3°F19.6°C 58.6°F14.8°C 74% 4.5 mph SE7.2 kmh SE 10.1 mph16.3 kmh 30.22 in1023.4 mb 0.00 in0.0 mm 0.00 in0.0 mm 0.00 in0.0 mm
09:46 AM 68.4°F20.2°C 60.1°F15.6°C 75% 2.2 mph E3.5 kmh E 15.0 mph24.1 kmh 30.24 in1024.0 mb 0.00 in0.0 mm 0.00 in0.0 mm 0.00 in0.0 mm
10:02 AM 68.5°F20.3°C 59.2°F15.1°C 72% 5.4 mph S8.7 kmh S 10.1 mph16.3 kmh 30.24 in1024.0 mb 0.00 in0.0 mm 0.00 in0.0 mm 0.00 in0.0 mm
10:17 AM 70.2°F21.2°C 59.2°F15.1°C 68% 2.5 mph SE4.0 kmh SE 7.6 mph12.2 kmh 30.24 in1024.0 mb 0.00 in0.0 mm 0.00 in0.0 mm 0.00 in0.0 mm
10:32 AM 71.2°F21.8°C 60.1°F15.6°C 68% Calm Calm 10.1 mph16.3 kmh 30.24 in1024.0 mb 0.00 in0.0 mm 0.00 in0.0 mm 0.00 in0.0 mm
10:47 AM 71.8°F22.1°C 60.6°F15.9°C 68% 2.9 mph S4.7 kmh S 10.1 mph16.3 kmh 30.24 in1024.0 mb 0.00 in0.0 mm 0.00 in0.0 mm 0.00 in0.0 mm
11:02 AM 72.3°F22.4°C 59.9°F15.5°C 65% 6.3 mph SW10.1 kmh SW 10.1 mph16.3 kmh 30.25 in1024.4 mb 0.00 in0.0 mm 0.00 in0.0 mm 0.00 in0.0 mm
11:17 AM 73.2°F22.9°C 61.5°F16.4°C 67% 7.2 mph SSE11.6 kmh SSE 12.5 mph20.1 kmh 30.25 in1024.4 mb 0.00 in0.0 mm 0.00 in0.0 mm 0.00 in0.0 mm
11:33 AM 72.9°F22.7°C 61.7°F16.5°C 68% 0.9 mph SSE1.4 kmh SSE 12.5 mph20.1 kmh 30.26 in1024.7 mb 0.00 in0.0 mm 0.00 in0.0 mm 0.00 in0.0 mm
11:48 AM 72.3°F22.4°C 61.5°F16.4°C 69% 5.6 mph S9.0 kmh S 10.1 mph16.3 kmh 30.25 in1024.4 mb 0.00 in0.0 mm 0.00 in0.0 mm 0.00 in0.0 mm
12:03 PM 72.7°F22.6°C 61.9°F16.6°C 69% 2.9 mph SSW4.7 kmh SSW 10.1 mph16.3 kmh 30.25 in1024.4 mb 0.00 in0.0 mm 0.00 in0.0 mm 0.00 in0.0 mm
12:18 PM 72.7°F22.6°C 61.2°F16.2°C 67% 4.9 mph S7.9 kmh S 12.5 mph20.1 kmh 30.25 in1024.4 mb 0.00 in0.0 mm 0.00 in0.0 mm 0.00 in0.0 mm
12:34 PM 72.7°F22.6°C 63.1°F17.3°C 72% 5.4 mph ENE8.7 kmh ENE 17.4 mph28.0 kmh 30.25 in1024.4 mb 0.00 in0.0 mm 0.00 in0.0 mm 0.00 in0.0 mm
12:49 PM 72.0°F22.2°C 61.7°F16.5°C 70% 4.9 mph S7.9 kmh S 12.5 mph20.1 kmh 30.25 in1024.4 mb 0.00 in0.0 mm 0.00 in0.0 mm 0.00 in0.0 mm
01:04 PM 72.1°F22.3°C 61.3°F16.3°C 69% 6.3 mph S10.1 kmh S 12.5 mph20.1 kmh 30.24 in1024.0 mb 0.00 in0.0 mm 0.00 in0.0 mm 0.00 in0.0 mm
01:19 PM 72.1°F22.3°C 61.9°F16.6°C 70% Calm Calm 10.1 mph16.3 kmh 30.24 in1024.0 mb 0.00 in0.0 mm 0.00 in0.0 mm 0.00 in0.0 mm
01:34 PM 71.6°F22.0°C 60.4°F15.8°C 68% 6.0 mph SSW9.7 kmh SSW 12.5 mph20.1 kmh 30.24 in1024.0 mb 0.00 in0.0 mm 0.00 in0.0 mm 0.00 in0.0 mm
01:50 PM 71.6°F22.0°C 60.8°F16.0°C 69% 2.5 mph SSE4.0 kmh SSE 12.5 mph20.1 kmh 30.24 in1024.0 mb 0.00 in0.0 mm 0.00 in0.0 mm 0.00 in0.0 mm
02:05 PM 72.1°F22.3°C 61.0°F16.1°C 68% 7.8 mph SSW12.6 kmh SSW 12.5 mph20.1 kmh 30.23 in1023.7 mb 0.00 in0.0 mm 0.00 in0.0 mm 0.00 in0.0 mm
02:20 PM 72.1°F22.3°C 61.3°F16.3°C 69% Calm Calm 12.5 mph20.1 kmh 30.23 in1023.7 mb 0.00 in0.0 mm 0.00 in0.0 mm 0.00 in0.0 mm
02:35 PM 72.5°F22.5°C 61.0°F16.1°C 67% 3.4 mph S5.5 kmh S 10.1 mph16.3 kmh 30.22 in1023.4 mb 0.00 in0.0 mm 0.00 in0.0 mm 0.00 in0.0 mm
02:50 PM 73.0°F22.8°C 61.0°F16.1°C 66% 2.2 mph SW3.5 kmh SW 10.1 mph16.3 kmh 30.21 in1023.0 mb 0.00 in0.0 mm 0.00 in0.0 mm 0.00 in0.0 mm
03:06 PM 73.2°F22.9°C 61.5°F16.4°C 67% 1.3 mph SSW2.1 kmh SSW 10.1 mph16.3 kmh 30.21 in1023.0 mb 0.00 in0.0 mm 0.00 in0.0 mm 0.00 in0.0 mm
03:21 PM 73.0°F22.8°C 61.5°F16.4°C 67% 2.9 mph S4.7 kmh S 10.1 mph16.3 kmh 30.20 in1022.7 mb 0.00 in0.0 mm 0.00 in0.0 mm 0.00 in0.0 mm
03:36 PM 73.0°F22.8°C 61.0°F16.1°C 66% 3.4 mph SW5.5 kmh SW 12.5 mph20.1 kmh 30.20 in1022.7 mb 0.00 in0.0 mm 0.00 in0.0 mm 0.00 in0.0 mm
03:51 PM 73.2°F22.9°C 62.8°F17.1°C 70% 7.8 mph SE12.6 kmh SE 12.5 mph20.1 kmh 30.20 in1022.7 mb 0.00 in0.0 mm 0.00 in0.0 mm 0.00 in0.0 mm
04:06 PM 73.0°F22.8°C 61.0°F16.1°C 66% 2.2 mph SE3.5 kmh SE 7.6 mph12.2 kmh 30.20 in1022.7 mb 0.00 in0.0 mm 0.00 in0.0 mm 0.00 in0.0 mm
04:22 PM 73.6°F23.1°C 61.9°F16.6°C 67% 3.8 mph S6.1 kmh S 7.6 mph12.2 kmh 30.20 in1022.7 mb 0.00 in0.0 mm 0.00 in0.0 mm 0.00 in0.0 mm
04:37 PM 73.0°F22.8°C 63.5°F17.5°C 72% 0.9 mph NE1.4 kmh NE 12.5 mph20.1 kmh 30.20 in1022.7 mb 0.00 in0.0 mm 0.00 in0.0 mm 0.00 in0.0 mm
04:52 PM 72.3°F22.4°C 62.1°F16.7°C 70% 1.8 mph S2.9 kmh S 10.1 mph16.3 kmh 30.20 in1022.7 mb 0.00 in0.0 mm 0.00 in0.0 mm 0.00 in0.0 mm
05:07 PM 71.2°F21.8°C 62.6°F17.0°C 74% 4.0 mph SSW6.4 kmh SSW 10.1 mph16.3 kmh 30.20 in1022.7 mb 0.00 in0.0 mm 0.00 in0.0 mm 0.00 in0.0 mm
05:22 PM 69.6°F20.9°C 61.7°F16.5°C 76% 2.9 mph SE4.7 kmh SE 10.1 mph16.3 kmh 30.20 in1022.7 mb 0.00 in0.0 mm 0.00 in0.0 mm 0.00 in0.0 mm
05:37 PM 68.5°F20.3°C 61.0°F16.1°C 77% 4.7 mph SE7.6 kmh SE 7.6 mph12.2 kmh 30.19 in1022.4 mb 0.00 in0.0 mm 0.00 in0.0 mm 0.00 in0.0 mm
05:53 PM 68.2°F20.1°C 60.6°F15.9°C 77% 3.8 mph SSE6.1 kmh SSE 4.9 mph7.9 kmh 30.20 in1022.7 mb 0.00 in0.0 mm 0.00 in0.0 mm 0.00 in0.0 mm
06:08 PM 67.8°F19.9°C 60.3°F15.7°C 77% Calm Calm 4.9 mph7.9 kmh 30.19 in1022.4 mb 0.00 in0.0 mm 0.00 in0.0 mm 0.00 in0.0 mm
06:23 PM 67.8°F19.9°C 60.6°F15.9°C 78% Calm Calm 2.5 mph4.0 kmh 30.19 in1022.4 mb 0.00 in0.0 mm 0.00 in0.0 mm 0.00 in0.0 mm
06:38 PM 67.6°F19.8°C 60.6°F15.9°C 78% Calm Calm -- 30.19 in1022.4 mb 0.00 in0.0 mm 0.00 in0.0 mm 0.00 in0.0 mm
06:54 PM 67.3°F19.6°C 61.0°F16.1°C 80% Calm Calm 2.5 mph4.0 kmh 30.20 in1022.7 mb 0.00 in0.0 mm 0.00 in0.0 mm 0.00 in0.0 mm
07:09 PM 66.9°F19.4°C 61.0°F16.1°C 81% 1.6 mph NW2.6 kmh NW 2.5 mph4.0 kmh 30.20 in1022.7 mb 0.00 in0.0 mm 0.00 in0.0 mm 0.00 in0.0 mm
07:24 PM 66.4°F19.1°C 60.4°F15.8°C 81% Calm Calm 4.9 mph7.9 kmh 30.20 in1022.7 mb 0.00 in0.0 mm 0.00 in0.0 mm 0.00 in0.0 mm
07:39 PM 66.0°F18.9°C 60.4°F15.8°C 82% Calm Calm 4.9 mph7.9 kmh 30.20 in1022.7 mb 0.00 in0.0 mm 0.00 in0.0 mm 0.00 in0.0 mm
07:54 PM 65.7°F18.7°C 58.6°F14.8°C 78% Calm Calm 4.9 mph7.9 kmh 30.20 in1022.7 mb 0.00 in0.0 mm 0.00 in0.0 mm 0.00 in0.0 mm
08:10 PM 65.1°F18.4°C 57.7°F14.3°C 77% 1.6 mph NNW2.6 kmh NNW 7.6 mph12.2 kmh 30.20 in1022.7 mb 0.00 in0.0 mm 0.00 in0.0 mm 0.00 in0.0 mm
08:25 PM 64.8°F18.2°C 56.7°F13.7°C 75% 3.4 mph NW5.5 kmh NW 7.6 mph12.2 kmh 30.20 in1022.7 mb 0.00 in0.0 mm 0.00 in0.0 mm 0.00 in0.0 mm
08:40 PM 64.6°F18.1°C 56.1°F13.4°C 74% 0.7 mph NW1.1 kmh NW 7.6 mph12.2 kmh 30.21 in1023.0 mb 0.00 in0.0 mm 0.00 in0.0 mm 0.00 in0.0 mm
08:55 PM 64.6°F18.1°C 52.5°F11.4°C 65% 1.8 mph N2.9 kmh N 7.6 mph12.2 kmh 30.21 in1023.0 mb 0.00 in0.0 mm 0.00 in0.0 mm 0.00 in0.0 mm
09:10 PM 64.8°F18.2°C 52.3°F11.3°C 64% 4.9 mph NNW7.9 kmh NNW 7.6 mph12.2 kmh 30.22 in1023.4 mb 0.00 in0.0 mm 0.00 in0.0 mm 0.00 in0.0 mm
09:26 PM 64.8°F18.2°C 52.3°F11.3°C 64% 3.8 mph NNW6.1 kmh NNW 7.6 mph12.2 kmh 30.22 in1023.4 mb 0.00 in0.0 mm 0.00 in0.0 mm 0.00 in0.0 mm
09:41 PM 65.1°F18.4°C 50.0°F10.0°C 58% 3.4 mph NNW5.5 kmh NNW 10.1 mph16.3 kmh 30.21 in1023.0 mb 0.00 in0.0 mm 0.00 in0.0 mm 0.00 in0.0 mm
09:56 PM 66.2°F19.0°C 48.6°F9.2°C 53% 4.7 mph NNW7.6 kmh NNW 10.1 mph16.3 kmh 30.21 in1023.0 mb 0.00 in0.0 mm 0.00 in0.0 mm 0.00 in0.0 mm
10:11 PM 67.1°F19.5°C 50.4°F10.2°C 55% 2.9 mph NNW4.7 kmh NNW 7.6 mph12.2 kmh 30.21 in1023.0 mb 0.00 in0.0 mm 0.00 in0.0 mm 0.00 in0.0 mm
10:26 PM 66.7°F19.3°C 49.6°F9.8°C 54% 3.4 mph NNW5.5 kmh NNW 7.6 mph12.2 kmh 30.22 in1023.4 mb 0.00 in0.0 mm 0.00 in0.0 mm 0.00 in0.0 mm
10:42 PM 66.0°F18.9°C 49.8°F9.9°C 56% 3.8 mph N6.1 kmh N 7.6 mph12.2 kmh 30.21 in1023.0 mb 0.00 in0.0 mm 0.00 in0.0 mm 0.00 in0.0 mm
10:57 PM 66.2°F19.0°C 49.6°F9.8°C 55% 4.7 mph NW7.6 kmh NW 7.6 mph12.2 kmh 30.21 in1023.0 mb 0.00 in0.0 mm 0.00 in0.0 mm 0.00 in0.0 mm
11:12 PM 66.9°F19.4°C 47.7°F8.7°C 50% 0.9 mph N1.4 kmh N 10.1 mph16.3 kmh 30.21 in1023.0 mb 0.00 in0.0 mm 0.00 in0.0 mm 0.00 in0.0 mm
11:27 PM 68.0°F20.0°C 49.6°F9.8°C 52% 6.5 mph N10.5 kmh N 7.6 mph12.2 kmh 30.20 in1022.7 mb 0.00 in0.0 mm 0.00 in0.0 mm 0.00 in0.0 mm
11:42 PM 68.4°F20.2°C 50.5°F10.3°C 53% 4.9 mph NNW7.9 kmh NNW 7.6 mph12.2 kmh 30.21 in1023.0 mb 0.00 in0.0 mm 0.00 in0.0 mm 0.00 in0.0 mm
11:57 PM 67.5°F19.7°C 50.7°F10.4°C 55% 2.9 mph NW4.7 kmh NW 7.6 mph12.2 kmh 30.21 in1023.0 mb 0.00 in0.0 mm 0.00 in0.0 mm 0.00 in0.0 mm